sensor_id;sensor_type;location;lat;lon;timestamp;P1;durP1;ratioP1;P2;durP2;ratioP2
53287;SDS011;39172;45.550;12.072;2023-04-25T00:00:37;2.38;;;1.92;;
53287;SDS011;39172;45.550;12.072;2023-04-25T00:06:38;1.80;;;1.58;;
53287;SDS011;39172;45.550;12.072;2023-04-25T00:12:40;1.55;;;1.33;;
53287;SDS011;39172;45.550;12.072;2023-04-25T00:18:42;2.28;;;1.52;;
53287;SDS011;39172;45.550;12.072;2023-04-25T00:24:43;1.30;;;1.17;;
53287;SDS011;39172;45.550;12.072;2023-04-25T00:30:44;1.55;;;1.23;;
53287;SDS011;39172;45.550;12.072;2023-04-25T00:36:44;1.48;;;1.10;;
53287;SDS011;39172;45.550;12.072;2023-04-25T00:42:46;1.02;;;0.93;;
53287;SDS011;39172;45.550;12.072;2023-04-25T00:48:47;1.25;;;1.10;;
53287;SDS011;39172;45.550;12.072;2023-04-25T00:54:48;1.30;;;1.20;;
53287;SDS011;39172;45.550;12.072;2023-04-25T01:00:50;1.15;;;1.05;;
53287;SDS011;39172;45.550;12.072;2023-04-25T01:06:52;1.33;;;1.00;;
53287;SDS011;39172;45.550;12.072;2023-04-25T01:12:53;0.98;;;0.90;;
53287;SDS011;39172;45.550;12.072;2023-04-25T01:18:54;1.25;;;1.13;;
53287;SDS011;39172;45.550;12.072;2023-04-25T01:24:55;1.00;;;0.90;;
53287;SDS011;39172;45.550;12.072;2023-04-25T01:30:56;1.10;;;0.77;;
53287;SDS011;39172;45.550;12.072;2023-04-25T01:36:59;1.10;;;1.00;;
53287;SDS011;39172;45.550;12.072;2023-04-25T01:43:00;1.70;;;1.45;;
53287;SDS011;39172;45.550;12.072;2023-04-25T01:49:01;1.48;;;1.38;;
53287;SDS011;39172;45.550;12.072;2023-04-25T01:55:02;1.60;;;1.50;;
53287;SDS011;39172;45.550;12.072;2023-04-25T02:01:06;2.05;;;1.85;;
53287;SDS011;39172;45.550;12.072;2023-04-25T02:07:15;2.72;;;2.35;;
53287;SDS011;39172;45.550;12.072;2023-04-25T02:13:24;2.60;;;2.40;;
53287;SDS011;39172;45.550;12.072;2023-04-25T02:19:51;2.88;;;2.60;;
53287;SDS011;39172;45.550;12.072;2023-04-25T02:25:52;2.38;;;2.05;;
53287;SDS011;39172;45.550;12.072;2023-04-25T02:31:54;2.00;;;1.63;;
53287;SDS011;39172;45.550;12.072;2023-04-25T02:37:55;1.60;;;1.50;;
53287;SDS011;39172;45.550;12.072;2023-04-25T02:43:56;2.47;;;1.80;;
53287;SDS011;39172;45.550;12.072;2023-04-25T02:49:57;2.95;;;2.40;;
53287;SDS011;39172;45.550;12.072;2023-04-25T02:55:58;2.63;;;2.33;;
53287;SDS011;39172;45.550;12.072;2023-04-25T03:02:00;2.70;;;2.50;;
53287;SDS011;39172;45.550;12.072;2023-04-25T03:08:00;2.50;;;2.28;;
53287;SDS011;39172;45.550;12.072;2023-04-25T03:14:02;2.63;;;2.33;;
53287;SDS011;39172;45.550;12.072;2023-04-25T03:20:03;2.45;;;2.25;;
53287;SDS011;39172;45.550;12.072;2023-04-25T03:26:06;2.10;;;1.90;;
53287;SDS011;39172;45.550;12.072;2023-04-25T03:32:07;1.98;;;1.77;;
53287;SDS011;39172;45.550;12.072;2023-04-25T03:38:08;2.00;;;1.80;;
53287;SDS011;39172;45.550;12.072;2023-04-25T03:44:13;2.13;;;1.92;;
53287;SDS011;39172;45.550;12.072;2023-04-25T03:50:14;2.10;;;1.90;;
53287;SDS011;39172;45.550;12.072;2023-04-25T03:56:15;2.63;;;2.13;;
53287;SDS011;39172;45.550;12.072;2023-04-25T04:02:18;4.50;;;4.10;;
53287;SDS011;39172;45.550;12.072;2023-04-25T04:08:20;3.70;;;3.30;;
53287;SDS011;39172;45.550;12.072;2023-04-25T04:14:21;3.35;;;2.85;;
53287;SDS011;39172;45.550;12.072;2023-04-25T04:20:24;3.40;;;2.85;;
53287;SDS011;39172;45.550;12.072;2023-04-25T04:26:25;3.95;;;3.50;;
53287;SDS011;39172;45.550;12.072;2023-04-25T04:32:32;4.40;;;3.80;;
53287;SDS011;39172;45.550;12.072;2023-04-25T04:38:34;3.85;;;3.45;;
53287;SDS011;39172;45.550;12.072;2023-04-25T04:44:38;5.32;;;4.47;;
53287;SDS011;39172;45.550;12.072;2023-04-25T04:50:47;4.18;;;3.78;;
53287;SDS011;39172;45.550;12.072;2023-04-25T04:57:17;4.22;;;3.70;;
53287;SDS011;39172;45.550;12.072;2023-04-25T05:03:36;5.03;;;4.32;;
53287;SDS011;39172;45.550;12.072;2023-04-25T05:09:46;5.65;;;4.82;;
53287;SDS011;39172;45.550;12.072;2023-04-25T05:16:12;4.07;;;3.67;;
53287;SDS011;39172;45.550;12.072;2023-04-25T05:22:26;2.70;;;2.30;;
53287;SDS011;39172;45.550;12.072;2023-04-25T05:28:53;2.60;;;2.35;;
53287;SDS011;39172;45.550;12.072;2023-04-25T05:35:09;4.20;;;3.78;;
53287;SDS011;39172;45.550;12.072;2023-04-25T05:41:17;4.70;;;4.20;;
53287;SDS011;39172;45.550;12.072;2023-04-25T05:47:38;4.03;;;3.40;;
53287;SDS011;39172;45.550;12.072;2023-04-25T05:53:57;4.22;;;3.70;;
53287;SDS011;39172;45.550;12.072;2023-04-25T05:59:58;5.78;;;4.35;;
53287;SDS011;39172;45.550;12.072;2023-04-25T06:06:14;4.80;;;3.92;;
53287;SDS011;39172;45.550;12.072;2023-04-25T06:12:15;3.00;;;2.55;;
53287;SDS011;39172;45.550;12.072;2023-04-25T06:18:16;2.80;;;2.30;;
53287;SDS011;39172;45.550;12.072;2023-04-25T06:24:17;3.00;;;2.35;;
53287;SDS011;39172;45.550;12.072;2023-04-25T06:30:18;2.47;;;2.10;;
53287;SDS011;39172;45.550;12.072;2023-04-25T06:36:25;2.60;;;2.40;;
53287;SDS011;39172;45.550;12.072;2023-04-25T06:42:31;3.75;;;2.97;;
53287;SDS011;39172;45.550;12.072;2023-04-25T06:48:34;3.30;;;2.90;;
53287;SDS011;39172;45.550;12.072;2023-04-25T06:54:35;3.97;;;3.08;;
53287;SDS011;39172;45.550;12.072;2023-04-25T07:00:49;3.75;;;3.35;;
53287;SDS011;39172;45.550;12.072;2023-04-25T07:06:51;4.05;;;3.65;;
53287;SDS011;39172;45.550;12.072;2023-04-25T07:12:56;5.03;;;4.47;;
53287;SDS011;39172;45.550;12.072;2023-04-25T07:18:57;3.72;;;3.20;;
53287;SDS011;39172;45.550;12.072;2023-04-25T07:24:58;3.22;;;2.60;;
53287;SDS011;39172;45.550;12.072;2023-04-25T07:31:01;3.90;;;3.20;;
53287;SDS011;39172;45.550;12.072;2023-04-25T07:37:03;5.55;;;4.30;;
53287;SDS011;39172;45.550;12.072;2023-04-25T07:43:11;5.85;;;4.63;;
53287;SDS011;39172;45.550;12.072;2023-04-25T07:49:22;5.55;;;4.93;;
53287;SDS011;39172;45.550;12.072;2023-04-25T07:55:24;4.78;;;3.97;;
53287;SDS011;39172;45.550;12.072;2023-04-25T08:01:38;4.07;;;3.40;;
53287;SDS011;39172;45.550;12.072;2023-04-25T08:07:41;3.92;;;3.42;;
53287;SDS011;39172;45.550;12.072;2023-04-25T08:13:42;3.70;;;3.30;;
53287;SDS011;39172;45.550;12.072;2023-04-25T08:19:43;4.30;;;3.88;;
53287;SDS011;39172;45.550;12.072;2023-04-25T08:25:53;4.90;;;4.40;;
53287;SDS011;39172;45.550;12.072;2023-04-25T08:31:58;2.90;;;2.42;;
53287;SDS011;39172;45.550;12.072;2023-04-25T08:37:59;3.10;;;2.70;;
53287;SDS011;39172;45.550;12.072;2023-04-25T08:44:01;3.67;;;2.50;;
53287;SDS011;39172;45.550;12.072;2023-04-25T08:50:04;3.08;;;2.63;;
53287;SDS011;39172;45.550;12.072;2023-04-25T08:56:06;3.10;;;2.80;;
53287;SDS011;39172;45.550;12.072;2023-04-25T09:02:09;4.28;;;3.50;;
53287;SDS011;39172;45.550;12.072;2023-04-25T09:08:15;5.80;;;5.20;;
53287;SDS011;39172;45.550;12.072;2023-04-25T09:14:17;7.55;;;5.80;;
53287;SDS011;39172;45.550;12.072;2023-04-25T09:20:41;8.00;;;6.30;;
53287;SDS011;39172;45.550;12.072;2023-04-25T09:26:43;8.07;;;6.07;;
53287;SDS011;39172;45.550;12.072;2023-04-25T09:32:45;7.97;;;5.90;;
53287;SDS011;39172;45.550;12.072;2023-04-25T09:38:46;6.78;;;5.63;;
53287;SDS011;39172;45.550;12.072;2023-04-25T09:44:55;5.68;;;4.65;;
53287;SDS011;39172;45.550;12.072;2023-04-25T09:51:10;4.90;;;4.25;;
53287;SDS011;39172;45.550;12.072;2023-04-25T09:57:12;4.10;;;3.60;;
53287;SDS011;39172;45.550;12.072;2023-04-25T10:03:14;4.13;;;3.10;;
53287;SDS011;39172;45.550;12.072;2023-04-25T10:09:30;2.30;;;2.10;;
53287;SDS011;39172;45.550;12.072;2023-04-25T10:15:35;2.42;;;2.17;;
53287;SDS011;39172;45.550;12.072;2023-04-25T10:21:42;1.80;;;1.45;;
53287;SDS011;39172;45.550;12.072;2023-04-25T10:27:45;1.83;;;1.27;;
53287;SDS011;39172;45.550;12.072;2023-04-25T10:33:46;1.60;;;1.08;;
53287;SDS011;39172;45.550;12.072;2023-04-25T10:39:49;1.48;;;1.10;;
53287;SDS011;39172;45.550;12.072;2023-04-25T10:45:52;1.65;;;0.80;;
53287;SDS011;39172;45.550;12.072;2023-04-25T10:51:58;1.00;;;0.80;;
53287;SDS011;39172;45.550;12.072;2023-04-25T10:58:11;1.45;;;0.90;;
53287;SDS011;39172;45.550;12.072;2023-04-25T11:04:21;1.08;;;0.73;;
53287;SDS011;39172;45.550;12.072;2023-04-25T11:10:26;1.13;;;0.80;;
53287;SDS011;39172;45.550;12.072;2023-04-25T11:16:28;1.50;;;0.80;;
53287;SDS011;39172;45.550;12.072;2023-04-25T11:22:28;1.80;;;0.95;;
53287;SDS011;39172;45.550;12.072;2023-04-25T11:28:30;1.98;;;0.70;;
53287;SDS011;39172;45.550;12.072;2023-04-25T11:34:31;1.42;;;0.80;;
53287;SDS011;39172;45.550;12.072;2023-04-25T11:40:33;0.93;;;0.77;;
53287;SDS011;39172;45.550;12.072;2023-04-25T11:46:34;0.82;;;0.60;;
53287;SDS011;39172;45.550;12.072;2023-04-25T12:04:58;1.10;;;0.85;;
53287;SDS011;39172;45.550;12.072;2023-04-25T12:10:59;0.90;;;0.65;;
53287;SDS011;39172;45.550;12.072;2023-04-25T12:17:01;1.13;;;0.70;;
53287;SDS011;39172;45.550;12.072;2023-04-25T12:23:05;0.98;;;0.70;;
53287;SDS011;39172;45.550;12.072;2023-04-25T12:29:14;0.70;;;0.63;;
53287;SDS011;39172;45.550;12.072;2023-04-25T12:35:16;1.02;;;0.90;;
53287;SDS011;39172;45.550;12.072;2023-04-25T12:41:17;0.95;;;0.70;;
53287;SDS011;39172;45.550;12.072;2023-04-25T12:47:17;0.80;;;0.70;;
53287;SDS011;39172;45.550;12.072;2023-04-25T12:53:19;0.77;;;0.70;;
53287;SDS011;39172;45.550;12.072;2023-04-25T12:59:21;1.45;;;1.00;;
53287;SDS011;39172;45.550;12.072;2023-04-25T13:05:21;1.25;;;0.77;;
53287;SDS011;39172;45.550;12.072;2023-04-25T13:11:22;1.02;;;0.80;;
53287;SDS011;39172;45.550;12.072;2023-04-25T13:17:23;1.02;;;0.77;;
53287;SDS011;39172;45.550;12.072;2023-04-25T13:23:25;0.70;;;0.68;;
53287;SDS011;39172;45.550;12.072;2023-04-25T13:29:26;1.10;;;0.68;;
53287;SDS011;39172;45.550;12.072;2023-04-25T13:35:27;0.88;;;0.70;;
53287;SDS011;39172;45.550;12.072;2023-04-25T13:41:28;0.70;;;0.70;;
53287;SDS011;39172;45.550;12.072;2023-04-25T13:47:29;1.25;;;0.80;;
53287;SDS011;39172;45.550;12.072;2023-04-25T13:53:33;1.13;;;0.70;;
53287;SDS011;39172;45.550;12.072;2023-04-25T13:59:34;0.80;;;0.70;;
53287;SDS011;39172;45.550;12.072;2023-04-25T14:05:35;1.00;;;0.70;;
53287;SDS011;39172;45.550;12.072;2023-04-25T14:11:39;1.00;;;0.73;;
53287;SDS011;39172;45.550;12.072;2023-04-25T14:17:40;0.80;;;0.80;;
53287;SDS011;39172;45.550;12.072;2023-04-25T14:23:41;0.80;;;0.80;;
53287;SDS011;39172;45.550;12.072;2023-04-25T14:29:42;1.35;;;0.93;;
53287;SDS011;39172;45.550;12.072;2023-04-25T14:35:43;1.20;;;1.00;;
53287;SDS011;39172;45.550;12.072;2023-04-25T14:41:44;1.23;;;0.80;;
53287;SDS011;39172;45.550;12.072;2023-04-25T14:47:45;1.20;;;1.00;;
53287;SDS011;39172;45.550;12.072;2023-04-25T14:53:46;1.20;;;1.00;;
53287;SDS011;39172;45.550;12.072;2023-04-25T14:59:47;0.82;;;0.77;;
53287;SDS011;39172;45.550;12.072;2023-04-25T15:05:48;1.00;;;0.85;;
53287;SDS011;39172;45.550;12.072;2023-04-25T15:11:49;1.33;;;1.05;;
53287;SDS011;39172;45.550;12.072;2023-04-25T15:17:50;1.05;;;0.90;;
53287;SDS011;39172;45.550;12.072;2023-04-25T15:23:51;1.10;;;1.00;;
53287;SDS011;39172;45.550;12.072;2023-04-25T15:29:52;1.08;;;0.90;;
53287;SDS011;39172;45.550;12.072;2023-04-25T15:35:53;0.90;;;0.77;;
53287;SDS011;39172;45.550;12.072;2023-04-25T15:41:54;2.00;;;0.90;;
53287;SDS011;39172;45.550;12.072;2023-04-25T15:47:55;1.75;;;1.10;;
53287;SDS011;39172;45.550;12.072;2023-04-25T15:53:56;1.17;;;0.90;;
53287;SDS011;39172;45.550;12.072;2023-04-25T15:59:57;1.20;;;1.00;;
53287;SDS011;39172;45.550;12.072;2023-04-25T16:05:58;1.52;;;1.02;;
53287;SDS011;39172;45.550;12.072;2023-04-25T16:11:59;1.45;;;0.90;;
53287;SDS011;39172;45.550;12.072;2023-04-25T16:18:00;1.52;;;1.02;;
53287;SDS011;39172;45.550;12.072;2023-04-25T16:24:01;0.90;;;0.75;;
53287;SDS011;39172;45.550;12.072;2023-04-25T16:30:02;1.10;;;0.88;;
53287;SDS011;39172;45.550;12.072;2023-04-25T16:36:03;1.00;;;0.90;;
53287;SDS011;39172;45.550;12.072;2023-04-25T16:42:04;1.05;;;0.90;;
53287;SDS011;39172;45.550;12.072;2023-04-25T16:48:05;1.27;;;1.00;;
53287;SDS011;39172;45.550;12.072;2023-04-25T16:54:06;1.00;;;0.90;;
53287;SDS011;39172;45.550;12.072;2023-04-25T17:00:07;1.55;;;1.00;;
53287;SDS011;39172;45.550;12.072;2023-04-25T17:06:13;1.20;;;1.00;;
53287;SDS011;39172;45.550;12.072;2023-04-25T17:12:14;1.77;;;1.52;;
53287;SDS011;39172;45.550;12.072;2023-04-25T17:18:15;1.35;;;1.20;;
53287;SDS011;39172;45.550;12.072;2023-04-25T17:24:15;1.80;;;1.50;;
53287;SDS011;39172;45.550;12.072;2023-04-25T17:30:17;2.25;;;1.58;;
53287;SDS011;39172;45.550;12.072;2023-04-25T17:36:18;1.45;;;1.13;;
53287;SDS011;39172;45.550;12.072;2023-04-25T17:42:19;1.40;;;1.10;;
53287;SDS011;39172;45.550;12.072;2023-04-25T17:48:20;1.38;;;1.10;;
53287;SDS011;39172;45.550;12.072;2023-04-25T17:54:22;1.20;;;1.05;;
53287;SDS011;39172;45.550;12.072;2023-04-25T18:00:24;1.50;;;1.10;;
53287;SDS011;39172;45.550;12.072;2023-04-25T18:06:25;1.02;;;0.93;;
53287;SDS011;39172;45.550;12.072;2023-04-25T18:12:27;1.60;;;1.00;;
53287;SDS011;39172;45.550;12.072;2023-04-25T18:18:28;1.80;;;1.50;;
53287;SDS011;39172;45.550;12.072;2023-04-25T18:24:33;1.40;;;1.20;;
53287;SDS011;39172;45.550;12.072;2023-04-25T18:30:34;1.55;;;1.30;;
53287;SDS011;39172;45.550;12.072;2023-04-25T18:36:35;1.92;;;1.50;;
53287;SDS011;39172;45.550;12.072;2023-04-25T18:42:36;2.55;;;1.70;;
53287;SDS011;39172;45.550;12.072;2023-04-25T18:48:37;2.05;;;1.77;;
53287;SDS011;39172;45.550;12.072;2023-04-25T18:54:38;2.40;;;1.80;;
53287;SDS011;39172;45.550;12.072;2023-04-25T19:00:39;2.80;;;2.20;;
53287;SDS011;39172;45.550;12.072;2023-04-25T19:06:40;2.60;;;2.38;;
53287;SDS011;39172;45.550;12.072;2023-04-25T19:12:41;2.45;;;2.00;;
53287;SDS011;39172;45.550;12.072;2023-04-25T19:18:42;2.53;;;2.00;;
53287;SDS011;39172;45.550;12.072;2023-04-25T19:24:44;2.22;;;2.00;;
53287;SDS011;39172;45.550;12.072;2023-04-25T19:30:44;2.10;;;1.85;;
53287;SDS011;39172;45.550;12.072;2023-04-25T19:36:45;3.05;;;2.35;;
53287;SDS011;39172;45.550;12.072;2023-04-25T19:42:46;2.50;;;2.30;;
53287;SDS011;39172;45.550;12.072;2023-04-25T19:48:47;3.03;;;2.65;;
53287;SDS011;39172;45.550;12.072;2023-04-25T19:54:48;3.13;;;2.53;;
53287;SDS011;39172;45.550;12.072;2023-04-25T20:00:49;2.95;;;2.65;;
53287;SDS011;39172;45.550;12.072;2023-04-25T20:06:50;3.45;;;2.95;;
53287;SDS011;39172;45.550;12.072;2023-04-25T20:12:51;3.20;;;2.50;;
53287;SDS011;39172;45.550;12.072;2023-04-25T20:18:54;4.40;;;2.60;;
53287;SDS011;39172;45.550;12.072;2023-04-25T20:24:54;3.40;;;3.10;;
53287;SDS011;39172;45.550;12.072;2023-04-25T20:30:55;3.17;;;2.85;;
53287;SDS011;39172;45.550;12.072;2023-04-25T20:36:56;3.65;;;3.00;;
53287;SDS011;39172;45.550;12.072;2023-04-25T20:42:57;3.58;;;3.10;;
53287;SDS011;39172;45.550;12.072;2023-04-25T20:48:58;3.15;;;2.67;;
53287;SDS011;39172;45.550;12.072;2023-04-25T20:55:01;3.35;;;2.80;;
53287;SDS011;39172;45.550;12.072;2023-04-25T21:01:01;3.47;;;2.65;;
53287;SDS011;39172;45.550;12.072;2023-04-25T21:07:03;3.10;;;2.58;;
53287;SDS011;39172;45.550;12.072;2023-04-25T21:13:04;2.45;;;2.22;;
53287;SDS011;39172;45.550;12.072;2023-04-25T21:19:05;2.60;;;2.40;;
53287;SDS011;39172;45.550;12.072;2023-04-25T21:25:06;3.00;;;2.70;;
53287;SDS011;39172;45.550;12.072;2023-04-25T21:31:07;3.03;;;2.72;;
53287;SDS011;39172;45.550;12.072;2023-04-25T21:37:09;2.45;;;2.25;;
53287;SDS011;39172;45.550;12.072;2023-04-25T21:43:09;2.60;;;2.40;;
53287;SDS011;39172;45.550;12.072;2023-04-25T21:49:11;2.88;;;2.40;;
53287;SDS011;39172;45.550;12.072;2023-04-25T21:55:12;2.60;;;2.40;;
53287;SDS011;39172;45.550;12.072;2023-04-25T22:01:13;2.88;;;2.63;;
53287;SDS011;39172;45.550;12.072;2023-04-25T22:07:15;2.90;;;2.60;;
53287;SDS011;39172;45.550;12.072;2023-04-25T22:13:16;3.67;;;2.70;;
53287;SDS011;39172;45.550;12.072;2023-04-25T22:19:17;2.88;;;2.10;;
53287;SDS011;39172;45.550;12.072;2023-04-25T22:25:18;2.65;;;2.45;;
53287;SDS011;39172;45.550;12.072;2023-04-25T22:31:20;2.55;;;2.30;;
53287;SDS011;39172;45.550;12.072;2023-04-25T22:37:21;2.65;;;2.45;;
53287;SDS011;39172;45.550;12.072;2023-04-25T22:43:22;2.85;;;2.40;;
53287;SDS011;39172;45.550;12.072;2023-04-25T22:49:23;2.60;;;2.40;;
53287;SDS011;39172;45.550;12.072;2023-04-25T22:55:24;2.50;;;2.10;;
53287;SDS011;39172;45.550;12.072;2023-04-25T23:01:26;2.30;;;2.10;;
53287;SDS011;39172;45.550;12.072;2023-04-25T23:07:28;2.08;;;1.80;;
53287;SDS011;39172;45.550;12.072;2023-04-25T23:13:31;2.13;;;1.90;;
53287;SDS011;39172;45.550;12.072;2023-04-25T23:19:36;1.70;;;1.60;;
53287;SDS011;39172;45.550;12.072;2023-04-25T23:25:37;1.60;;;1.50;;
53287;SDS011;39172;45.550;12.072;2023-04-25T23:31:41;1.35;;;1.25;;
53287;SDS011;39172;45.550;12.072;2023-04-25T23:37:42;1.23;;;1.13;;
53287;SDS011;39172;45.550;12.072;2023-04-25T23:43:42;1.80;;;1.40;;
53287;SDS011;39172;45.550;12.072;2023-04-25T23:49:44;1.80;;;1.70;;
53287;SDS011;39172;45.550;12.072;2023-04-25T23:55:45;1.70;;;1.60;;
